sensor_id;sensor_type;location;lat;lon;timestamp;temperature;humidity
15930;DHT22;8064;51.142;4.780;2023-04-25T00:01:15;8.80;99.90
15930;DHT22;8064;51.142;4.780;2023-04-25T00:03:41;8.80;99.90
15930;DHT22;8064;51.142;4.780;2023-04-25T00:06:07;8.80;99.90
15930;DHT22;8064;51.142;4.780;2023-04-25T00:08:33;8.80;99.90
15930;DHT22;8064;51.142;4.780;2023-04-25T00:10:59;8.80;99.90
15930;DHT22;8064;51.142;4.780;2023-04-25T00:13:25;8.80;99.90
15930;DHT22;8064;51.142;4.780;2023-04-25T00:15:52;8.80;99.90
15930;DHT22;8064;51.142;4.780;2023-04-25T00:18:19;8.90;99.90
15930;DHT22;8064;51.142;4.780;2023-04-25T00:20:45;8.90;99.90
15930;DHT22;8064;51.142;4.780;2023-04-25T00:23:14;8.90;99.90
15930;DHT22;8064;51.142;4.780;2023-04-25T00:25:52;8.80;99.90
15930;DHT22;8064;51.142;4.780;2023-04-25T00:28:17;8.80;99.90
15930;DHT22;8064;51.142;4.780;2023-04-25T00:30:43;8.80;99.90
15930;DHT22;8064;51.142;4.780;2023-04-25T00:33:09;8.80;99.90
15930;DHT22;8064;51.142;4.780;2023-04-25T00:35:35;8.80;99.90
15930;DHT22;8064;51.142;4.780;2023-04-25T00:38:01;8.80;99.90
15930;DHT22;8064;51.142;4.780;2023-04-25T00:40:27;8.80;99.90
15930;DHT22;8064;51.142;4.780;2023-04-25T00:42:53;8.80;99.90
15930;DHT22;8064;51.142;4.780;2023-04-25T00:45:19;8.80;99.90
15930;DHT22;8064;51.142;4.780;2023-04-25T00:47:45;8.70;99.90
15930;DHT22;8064;51.142;4.780;2023-04-25T00:50:13;8.70;99.90
15930;DHT22;8064;51.142;4.780;2023-04-25T00:52:40;8.70;99.90
15930;DHT22;8064;51.142;4.780;2023-04-25T00:55:07;8.70;99.90
15930;DHT22;8064;51.142;4.780;2023-04-25T00:57:34;8.70;99.90
15930;DHT22;8064;51.142;4.780;2023-04-25T01:00:00;8.80;99.90
15930;DHT22;8064;51.142;4.780;2023-04-25T01:02:26;8.80;99.90
15930;DHT22;8064;51.142;4.780;2023-04-25T01:04:52;8.80;99.90
15930;DHT22;8064;51.142;4.780;2023-04-25T01:07:19;8.80;99.90
15930;DHT22;8064;51.142;4.780;2023-04-25T01:09:46;8.80;99.90
15930;DHT22;8064;51.142;4.780;2023-04-25T01:12:12;8.80;99.90
15930;DHT22;8064;51.142;4.780;2023-04-25T01:14:40;8.80;99.90
15930;DHT22;8064;51.142;4.780;2023-04-25T01:17:05;8.80;99.90
15930;DHT22;8064;51.142;4.780;2023-04-25T01:19:33;8.80;99.90
15930;DHT22;8064;51.142;4.780;2023-04-25T01:21:59;8.80;99.90
15930;DHT22;8064;51.142;4.780;2023-04-25T01:24:25;8.80;99.90
15930;DHT22;8064;51.142;4.780;2023-04-25T01:26:51;8.90;99.90
15930;DHT22;8064;51.142;4.780;2023-04-25T01:29:19;8.90;99.90
15930;DHT22;8064;51.142;4.780;2023-04-25T01:31:46;8.90;99.90
15930;DHT22;8064;51.142;4.780;2023-04-25T01:34:12;8.90;99.90
15930;DHT22;8064;51.142;4.780;2023-04-25T01:36:38;8.90;99.90
15930;DHT22;8064;51.142;4.780;2023-04-25T01:39:05;8.90;99.90
15930;DHT22;8064;51.142;4.780;2023-04-25T01:41:31;8.90;99.90
15930;DHT22;8064;51.142;4.780;2023-04-25T01:43:57;8.90;99.90
15930;DHT22;8064;51.142;4.780;2023-04-25T01:46:23;8.90;99.90
15930;DHT22;8064;51.142;4.780;2023-04-25T01:48:49;8.90;99.90
15930;DHT22;8064;51.142;4.780;2023-04-25T01:51:15;8.90;99.90
15930;DHT22;8064;51.142;4.780;2023-04-25T01:53:41;8.90;99.90
15930;DHT22;8064;51.142;4.780;2023-04-25T01:56:08;8.90;99.90
15930;DHT22;8064;51.142;4.780;2023-04-25T01:58:33;8.90;99.90
15930;DHT22;8064;51.142;4.780;2023-04-25T02:01:00;8.90;99.90
15930;DHT22;8064;51.142;4.780;2023-04-25T02:03:25;8.90;99.90
15930;DHT22;8064;51.142;4.780;2023-04-25T02:05:51;8.90;99.90
15930;DHT22;8064;51.142;4.780;2023-04-25T02:08:17;8.80;99.90
15930;DHT22;8064;51.142;4.780;2023-04-25T02:10:43;8.80;99.90
15930;DHT22;8064;51.142;4.780;2023-04-25T02:13:09;8.80;99.90
15930;DHT22;8064;51.142;4.780;2023-04-25T02:15:35;8.80;99.90
15930;DHT22;8064;51.142;4.780;2023-04-25T02:18:01;8.80;99.90
15930;DHT22;8064;51.142;4.780;2023-04-25T02:20:29;8.90;99.90
15930;DHT22;8064;51.142;4.780;2023-04-25T02:22:56;8.90;99.90
15930;DHT22;8064;51.142;4.780;2023-04-25T02:25:22;8.90;99.90
15930;DHT22;8064;51.142;4.780;2023-04-25T02:27:48;8.80;99.90
15930;DHT22;8064;51.142;4.780;2023-04-25T02:30:14;8.80;99.90
15930;DHT22;8064;51.142;4.780;2023-04-25T02:32:40;8.80;99.90
15930;DHT22;8064;51.142;4.780;2023-04-25T02:35:07;8.80;99.90
15930;DHT22;8064;51.142;4.780;2023-04-25T02:37:34;8.80;99.90
15930;DHT22;8064;51.142;4.780;2023-04-25T02:40:00;8.80;99.90
15930;DHT22;8064;51.142;4.780;2023-04-25T02:42:27;8.80;99.90
15930;DHT22;8064;51.142;4.780;2023-04-25T02:44:53;8.80;99.90
15930;DHT22;8064;51.142;4.780;2023-04-25T02:47:19;8.80;99.90
15930;DHT22;8064;51.142;4.780;2023-04-25T02:49:45;8.80;99.90
15930;DHT22;8064;51.142;4.780;2023-04-25T02:52:11;8.80;99.90
15930;DHT22;8064;51.142;4.780;2023-04-25T02:54:37;8.80;99.90
15930;DHT22;8064;51.142;4.780;2023-04-25T02:57:03;8.80;99.90
15930;DHT22;8064;51.142;4.780;2023-04-25T02:59:29;8.80;99.90
15930;DHT22;8064;51.142;4.780;2023-04-25T03:01:55;8.80;99.90
15930;DHT22;8064;51.142;4.780;2023-04-25T03:04:21;8.80;99.90
15930;DHT22;8064;51.142;4.780;2023-04-25T03:06:49;8.80;99.90
15930;DHT22;8064;51.142;4.780;2023-04-25T03:09:15;8.80;99.90
15930;DHT22;8064;51.142;4.780;2023-04-25T03:11:41;8.80;99.90
15930;DHT22;8064;51.142;4.780;2023-04-25T03:14:07;8.80;99.90
15930;DHT22;8064;51.142;4.780;2023-04-25T03:16:33;8.80;99.90
15930;DHT22;8064;51.142;4.780;2023-04-25T03:18:59;8.80;99.90
15930;DHT22;8064;51.142;4.780;2023-04-25T03:21:25;8.80;99.90
15930;DHT22;8064;51.142;4.780;2023-04-25T03:23:51;8.80;99.90
15930;DHT22;8064;51.142;4.780;2023-04-25T03:26:17;8.80;99.90
15930;DHT22;8064;51.142;4.780;2023-04-25T03:28:43;8.70;99.90
15930;DHT22;8064;51.142;4.780;2023-04-25T03:31:09;8.70;99.90
15930;DHT22;8064;51.142;4.780;2023-04-25T03:33:35;8.70;99.90
15930;DHT22;8064;51.142;4.780;2023-04-25T03:36:00;8.70;99.90
15930;DHT22;8064;51.142;4.780;2023-04-25T03:38:26;8.70;99.90
15930;DHT22;8064;51.142;4.780;2023-04-25T03:40:52;8.70;99.90
15930;DHT22;8064;51.142;4.780;2023-04-25T03:43:18;8.60;99.90
15930;DHT22;8064;51.142;4.780;2023-04-25T03:45:44;8.60;99.90
15930;DHT22;8064;51.142;4.780;2023-04-25T03:48:10;8.60;99.90
15930;DHT22;8064;51.142;4.780;2023-04-25T03:50:35;8.50;99.90
15930;DHT22;8064;51.142;4.780;2023-04-25T03:53:01;8.50;99.90
15930;DHT22;8064;51.142;4.780;2023-04-25T03:55:27;8.50;99.90
15930;DHT22;8064;51.142;4.780;2023-04-25T03:57:52;8.50;99.90
15930;DHT22;8064;51.142;4.780;2023-04-25T04:00:18;8.40;99.90
15930;DHT22;8064;51.142;4.780;2023-04-25T04:02:44;8.40;99.90
15930;DHT22;8064;51.142;4.780;2023-04-25T04:05:10;8.40;99.90
15930;DHT22;8064;51.142;4.780;2023-04-25T04:07:35;8.40;99.90
15930;DHT22;8064;51.142;4.780;2023-04-25T04:10:07;8.40;99.90
15930;DHT22;8064;51.142;4.780;2023-04-25T04:12:33;8.30;99.90
15930;DHT22;8064;51.142;4.780;2023-04-25T04:14:59;8.30;99.90
15930;DHT22;8064;51.142;4.780;2023-04-25T04:17:24;8.30;99.90
15930;DHT22;8064;51.142;4.780;2023-04-25T04:19:50;8.30;99.90
15930;DHT22;8064;51.142;4.780;2023-04-25T04:22:16;8.30;99.90
15930;DHT22;8064;51.142;4.780;2023-04-25T04:24:42;8.30;99.90
15930;DHT22;8064;51.142;4.780;2023-04-25T04:27:09;8.30;99.90
15930;DHT22;8064;51.142;4.780;2023-04-25T04:29:35;8.30;99.90
15930;DHT22;8064;51.142;4.780;2023-04-25T04:32:02;8.30;99.90
15930;DHT22;8064;51.142;4.780;2023-04-25T04:34:29;8.30;99.90
15930;DHT22;8064;51.142;4.780;2023-04-25T04:36:54;8.30;99.90
15930;DHT22;8064;51.142;4.780;2023-04-25T04:39:20;8.30;99.90
15930;DHT22;8064;51.142;4.780;2023-04-25T04:41:46;8.30;99.90
15930;DHT22;8064;51.142;4.780;2023-04-25T04:44:12;8.30;99.90
15930;DHT22;8064;51.142;4.780;2023-04-25T04:46:39;8.30;99.90
15930;DHT22;8064;51.142;4.780;2023-04-25T04:49:06;8.30;99.90
15930;DHT22;8064;51.142;4.780;2023-04-25T04:51:32;8.40;99.90
15930;DHT22;8064;51.142;4.780;2023-04-25T04:53:58;8.40;99.90
15930;DHT22;8064;51.142;4.780;2023-04-25T04:56:28;8.40;99.90
15930;DHT22;8064;51.142;4.780;2023-04-25T04:58:55;8.40;99.90
15930;DHT22;8064;51.142;4.780;2023-04-25T05:01:20;8.40;99.90
15930;DHT22;8064;51.142;4.780;2023-04-25T05:03:47;8.40;99.90
15930;DHT22;8064;51.142;4.780;2023-04-25T05:06:13;8.40;99.90
15930;DHT22;8064;51.142;4.780;2023-04-25T05:08:38;8.40;99.90
15930;DHT22;8064;51.142;4.780;2023-04-25T05:11:05;8.50;99.90
15930;DHT22;8064;51.142;4.780;2023-04-25T05:13:30;8.50;99.90
15930;DHT22;8064;51.142;4.780;2023-04-25T05:15:56;8.50;99.90
15930;DHT22;8064;51.142;4.780;2023-04-25T05:18:22;8.60;99.90
15930;DHT22;8064;51.142;4.780;2023-04-25T05:20:48;8.60;99.90
15930;DHT22;8064;51.142;4.780;2023-04-25T05:23:14;8.60;99.90
15930;DHT22;8064;51.142;4.780;2023-04-25T05:25:39;8.60;99.90
15930;DHT22;8064;51.142;4.780;2023-04-25T05:28:05;8.70;99.90
15930;DHT22;8064;51.142;4.780;2023-04-25T05:30:31;8.70;99.90
15930;DHT22;8064;51.142;4.780;2023-04-25T05:32:57;8.70;99.90
15930;DHT22;8064;51.142;4.780;2023-04-25T05:35:23;8.70;99.90
15930;DHT22;8064;51.142;4.780;2023-04-25T05:37:48;8.70;99.90
15930;DHT22;8064;51.142;4.780;2023-04-25T05:40:14;8.80;99.90
15930;DHT22;8064;51.142;4.780;2023-04-25T05:42:40;8.80;99.90
15930;DHT22;8064;51.142;4.780;2023-04-25T05:45:06;8.80;99.90
15930;DHT22;8064;51.142;4.780;2023-04-25T05:47:32;8.90;99.90
15930;DHT22;8064;51.142;4.780;2023-04-25T05:49:57;8.90;99.90
15930;DHT22;8064;51.142;4.780;2023-04-25T05:52:23;9.00;99.90
15930;DHT22;8064;51.142;4.780;2023-04-25T05:54:49;9.00;99.90
15930;DHT22;8064;51.142;4.780;2023-04-25T05:57:23;9.10;99.90
15930;DHT22;8064;51.142;4.780;2023-04-25T05:59:49;9.10;99.90
15930;DHT22;8064;51.142;4.780;2023-04-25T06:02:15;9.20;99.90
15930;DHT22;8064;51.142;4.780;2023-04-25T06:04:41;9.20;99.90
15930;DHT22;8064;51.142;4.780;2023-04-25T06:07:07;9.30;99.90
15930;DHT22;8064;51.142;4.780;2023-04-25T06:09:33;9.30;99.90
15930;DHT22;8064;51.142;4.780;2023-04-25T06:11:59;9.40;99.90
15930;DHT22;8064;51.142;4.780;2023-04-25T06:14:25;9.40;99.90
15930;DHT22;8064;51.142;4.780;2023-04-25T06:16:51;9.40;99.90
15930;DHT22;8064;51.142;4.780;2023-04-25T06:19:16;9.50;99.90
15930;DHT22;8064;51.142;4.780;2023-04-25T06:21:44;9.60;99.90
15930;DHT22;8064;51.142;4.780;2023-04-25T06:24:09;9.70;99.90
15930;DHT22;8064;51.142;4.780;2023-04-25T06:26:35;9.80;99.90
15930;DHT22;8064;51.142;4.780;2023-04-25T06:29:02;9.80;99.90
15930;DHT22;8064;51.142;4.780;2023-04-25T06:31:27;9.80;99.90
15930;DHT22;8064;51.142;4.780;2023-04-25T06:33:54;9.90;99.90
15930;DHT22;8064;51.142;4.780;2023-04-25T06:36:21;9.80;99.90
15930;DHT22;8064;51.142;4.780;2023-04-25T06:38:51;9.90;99.90
15930;DHT22;8064;51.142;4.780;2023-04-25T06:41:18;9.90;99.90
15930;DHT22;8064;51.142;4.780;2023-04-25T06:43:44;9.80;99.90
15930;DHT22;8064;51.142;4.780;2023-04-25T06:46:10;9.80;99.90
15930;DHT22;8064;51.142;4.780;2023-04-25T06:48:36;9.80;99.90
15930;DHT22;8064;51.142;4.780;2023-04-25T06:51:02;9.90;99.90
15930;DHT22;8064;51.142;4.780;2023-04-25T06:53:28;10.00;99.90
15930;DHT22;8064;51.142;4.780;2023-04-25T06:55:54;10.10;99.90
15930;DHT22;8064;51.142;4.780;2023-04-25T06:58:20;10.10;99.90
15930;DHT22;8064;51.142;4.780;2023-04-25T07:00:45;10.20;99.90
15930;DHT22;8064;51.142;4.780;2023-04-25T07:03:11;10.30;99.90
15930;DHT22;8064;51.142;4.780;2023-04-25T07:05:37;10.40;99.90
15930;DHT22;8064;51.142;4.780;2023-04-25T07:08:03;10.40;99.90
15930;DHT22;8064;51.142;4.780;2023-04-25T07:10:29;10.50;99.90
15930;DHT22;8064;51.142;4.780;2023-04-25T07:12:55;10.50;99.90
15930;DHT22;8064;51.142;4.780;2023-04-25T07:15:21;10.60;99.90
15930;DHT22;8064;51.142;4.780;2023-04-25T07:17:46;10.60;99.90
15930;DHT22;8064;51.142;4.780;2023-04-25T07:20:12;10.70;99.90
15930;DHT22;8064;51.142;4.780;2023-04-25T07:22:38;10.80;99.90
15930;DHT22;8064;51.142;4.780;2023-04-25T07:25:04;10.90;99.90
15930;DHT22;8064;51.142;4.780;2023-04-25T07:27:30;11.20;99.90
15930;DHT22;8064;51.142;4.780;2023-04-25T07:29:56;11.40;99.90
15930;DHT22;8064;51.142;4.780;2023-04-25T07:32:23;11.60;99.90
15930;DHT22;8064;51.142;4.780;2023-04-25T07:34:48;11.70;99.90
15930;DHT22;8064;51.142;4.780;2023-04-25T07:37:14;11.80;99.90
15930;DHT22;8064;51.142;4.780;2023-04-25T07:39:41;11.70;99.90
15930;DHT22;8064;51.142;4.780;2023-04-25T07:42:07;11.80;99.90
15930;DHT22;8064;51.142;4.780;2023-04-25T07:44:34;11.80;99.90
15930;DHT22;8064;51.142;4.780;2023-04-25T07:47:05;11.80;99.90
15930;DHT22;8064;51.142;4.780;2023-04-25T07:49:33;12.00;99.90
15930;DHT22;8064;51.142;4.780;2023-04-25T07:52:00;12.20;99.90
15930;DHT22;8064;51.142;4.780;2023-04-25T07:54:26;12.40;99.90
15930;DHT22;8064;51.142;4.780;2023-04-25T07:56:52;12.70;99.90
15930;DHT22;8064;51.142;4.780;2023-04-25T07:59:17;13.00;99.90
15930;DHT22;8064;51.142;4.780;2023-04-25T08:01:43;13.30;99.90
15930;DHT22;8064;51.142;4.780;2023-04-25T08:04:09;13.60;99.60
15930;DHT22;8064;51.142;4.780;2023-04-25T08:06:35;13.80;99.20
15930;DHT22;8064;51.142;4.780;2023-04-25T08:09:01;14.00;98.80
15930;DHT22;8064;51.142;4.780;2023-04-25T08:11:28;14.20;98.60
15930;DHT22;8064;51.142;4.780;2023-04-25T08:13:54;14.50;98.30
15930;DHT22;8064;51.142;4.780;2023-04-25T08:16:20;14.70;97.70
15930;DHT22;8064;51.142;4.780;2023-04-25T08:18:45;14.70;97.20
15930;DHT22;8064;51.142;4.780;2023-04-25T08:21:11;14.70;96.80
15930;DHT22;8064;51.142;4.780;2023-04-25T08:23:38;14.80;96.60
15930;DHT22;8064;51.142;4.780;2023-04-25T08:26:04;14.90;96.40
15930;DHT22;8064;51.142;4.780;2023-04-25T08:28:30;15.10;96.30
15930;DHT22;8064;51.142;4.780;2023-04-25T08:30:56;15.30;96.30
15930;DHT22;8064;51.142;4.780;2023-04-25T08:33:22;15.50;96.10
15930;DHT22;8064;51.142;4.780;2023-04-25T08:35:48;15.70;95.80
15930;DHT22;8064;51.142;4.780;2023-04-25T08:38:14;15.80;95.40
15930;DHT22;8064;51.142;4.780;2023-04-25T08:40:40;15.80;95.00
15930;DHT22;8064;51.142;4.780;2023-04-25T08:43:07;15.60;94.50
15930;DHT22;8064;51.142;4.780;2023-04-25T08:45:42;15.50;94.30
15930;DHT22;8064;51.142;4.780;2023-04-25T08:48:12;15.50;94.40
15930;DHT22;8064;51.142;4.780;2023-04-25T08:50:52;15.40;94.30
15930;DHT22;8064;51.142;4.780;2023-04-25T08:56:08;15.10;94.00
15930;DHT22;8064;51.142;4.780;2023-04-25T08:58:35;14.70;94.00
15930;DHT22;8064;51.142;4.780;2023-04-25T09:01:03;14.40;94.00
15930;DHT22;8064;51.142;4.780;2023-04-25T09:03:29;14.00;94.30
15930;DHT22;8064;51.142;4.780;2023-04-25T09:05:55;13.60;94.20
15930;DHT22;8064;51.142;4.780;2023-04-25T09:08:21;13.30;94.50
15930;DHT22;8064;51.142;4.780;2023-04-25T09:10:47;13.10;94.70
15930;DHT22;8064;51.142;4.780;2023-04-25T09:13:14;12.90;95.30
15930;DHT22;8064;51.142;4.780;2023-04-25T09:15:59;12.70;95.10
15930;DHT22;8064;51.142;4.780;2023-04-25T09:18:28;12.50;95.20
15930;DHT22;8064;51.142;4.780;2023-04-25T09:20:55;12.50;95.40
15930;DHT22;8064;51.142;4.780;2023-04-25T09:23:22;12.50;95.40
15930;DHT22;8064;51.142;4.780;2023-04-25T09:25:51;12.60;95.40
15930;DHT22;8064;51.142;4.780;2023-04-25T09:28:23;12.60;95.40
15930;DHT22;8064;51.142;4.780;2023-04-25T09:30:55;12.70;95.40
15930;DHT22;8064;51.142;4.780;2023-04-25T09:33:28;12.90;95.30
15930;DHT22;8064;51.142;4.780;2023-04-25T09:36:02;13.20;95.40
15930;DHT22;8064;51.142;4.780;2023-04-25T09:38:31;13.80;95.50
15930;DHT22;8064;51.142;4.780;2023-04-25T09:40:57;14.10;95.20
15930;DHT22;8064;51.142;4.780;2023-04-25T09:43:24;14.40;94.80
15930;DHT22;8064;51.142;4.780;2023-04-25T09:45:53;14.70;94.90
15930;DHT22;8064;51.142;4.780;2023-04-25T09:48:21;15.00;94.80
15930;DHT22;8064;51.142;4.780;2023-04-25T09:51:06;15.20;94.70
15930;DHT22;8064;51.142;4.780;2023-04-25T09:53:35;15.40;93.70
15930;DHT22;8064;51.142;4.780;2023-04-25T09:56:04;15.60;93.60
15930;DHT22;8064;51.142;4.780;2023-04-25T09:58:32;15.80;93.10
15930;DHT22;8064;51.142;4.780;2023-04-25T10:01:01;16.00;93.10
15930;DHT22;8064;51.142;4.780;2023-04-25T10:03:30;16.30;92.70
15930;DHT22;8064;51.142;4.780;2023-04-25T10:05:59;16.70;92.50
15930;DHT22;8064;51.142;4.780;2023-04-25T10:08:28;17.00;92.20
15930;DHT22;8064;51.142;4.780;2023-04-25T10:10:58;17.10;92.10
15930;DHT22;8064;51.142;4.780;2023-04-25T10:13:25;17.20;91.40
15930;DHT22;8064;51.142;4.780;2023-04-25T10:15:52;17.30;91.00
15930;DHT22;8064;51.142;4.780;2023-04-25T10:18:19;17.30;90.60
15930;DHT22;8064;51.142;4.780;2023-04-25T10:20:45;17.30;90.20
15930;DHT22;8064;51.142;4.780;2023-04-25T10:23:13;17.40;89.90
15930;DHT22;8064;51.142;4.780;2023-04-25T10:25:41;17.50;89.00
15930;DHT22;8064;51.142;4.780;2023-04-25T10:28:07;17.60;89.00
15930;DHT22;8064;51.142;4.780;2023-04-25T10:30:32;17.50;88.60
15930;DHT22;8064;51.142;4.780;2023-04-25T10:32:59;17.70;88.50
15930;DHT22;8064;51.142;4.780;2023-04-25T10:35:27;17.90;87.20
15930;DHT22;8064;51.142;4.780;2023-04-25T10:38:10;17.90;86.20
15930;DHT22;8064;51.142;4.780;2023-04-25T10:40:36;18.00;86.50
15930;DHT22;8064;51.142;4.780;2023-04-25T10:46:00;17.90;86.60
15930;DHT22;8064;51.142;4.780;2023-04-25T10:48:28;17.90;86.70
15930;DHT22;8064;51.142;4.780;2023-04-25T10:51:15;17.90;85.80
15930;DHT22;8064;51.142;4.780;2023-04-25T10:53:44;17.70;85.40
15930;DHT22;8064;51.142;4.780;2023-04-25T10:56:29;17.50;85.70
15930;DHT22;8064;51.142;4.780;2023-04-25T10:59:13;17.10;85.50
15930;DHT22;8064;51.142;4.780;2023-04-25T11:01:42;16.80;85.60
15930;DHT22;8064;51.142;4.780;2023-04-25T11:04:29;16.40;86.20
15930;DHT22;8064;51.142;4.780;2023-04-25T11:07:19;16.00;85.30
15930;DHT22;8064;51.142;4.780;2023-04-25T11:09:49;15.60;86.10
15930;DHT22;8064;51.142;4.780;2023-04-25T11:12:15;15.30;87.10
15930;DHT22;8064;51.142;4.780;2023-04-25T11:14:42;15.10;87.70
15930;DHT22;8064;51.142;4.780;2023-04-25T11:17:08;14.90;88.00
15930;DHT22;8064;51.142;4.780;2023-04-25T11:19:34;14.80;88.20
15930;DHT22;8064;51.142;4.780;2023-04-25T11:22:01;14.80;88.30
15930;DHT22;8064;51.142;4.780;2023-04-25T11:24:30;14.90;88.60
15930;DHT22;8064;51.142;4.780;2023-04-25T11:26:58;15.00;88.40
15930;DHT22;8064;51.142;4.780;2023-04-25T11:29:27;15.20;87.80
15930;DHT22;8064;51.142;4.780;2023-04-25T11:31:54;15.40;87.50
15930;DHT22;8064;51.142;4.780;2023-04-25T11:34:22;15.60;87.70
15930;DHT22;8064;51.142;4.780;2023-04-25T11:36:48;15.70;87.80
15930;DHT22;8064;51.142;4.780;2023-04-25T11:39:14;16.00;87.70
15930;DHT22;8064;51.142;4.780;2023-04-25T11:41:41;16.20;87.80
15930;DHT22;8064;51.142;4.780;2023-04-25T11:44:07;16.40;87.40
15930;DHT22;8064;51.142;4.780;2023-04-25T11:46:34;16.60;87.30
15930;DHT22;8064;51.142;4.780;2023-04-25T11:49:00;16.80;87.50
15930;DHT22;8064;51.142;4.780;2023-04-25T11:51:26;16.90;87.50
15930;DHT22;8064;51.142;4.780;2023-04-25T11:53:52;17.10;86.60
15930;DHT22;8064;51.142;4.780;2023-04-25T11:56:18;17.10;85.10
15930;DHT22;8064;51.142;4.780;2023-04-25T11:58:56;16.90;84.90
15930;DHT22;8064;51.142;4.780;2023-04-25T12:01:40;16.70;84.70
15930;DHT22;8064;51.142;4.780;2023-04-25T12:04:25;16.40;84.50
15930;DHT22;8064;51.142;4.780;2023-04-25T12:06:52;16.10;84.50
15930;DHT22;8064;51.142;4.780;2023-04-25T12:09:20;15.90;85.00
15930;DHT22;8064;51.142;4.780;2023-04-25T12:11:57;15.70;84.70
15930;DHT22;8064;51.142;4.780;2023-04-25T12:14:26;15.70;85.10
15930;DHT22;8064;51.142;4.780;2023-04-25T12:16:54;15.70;84.80
15930;DHT22;8064;51.142;4.780;2023-04-25T12:19:21;15.70;84.20
15930;DHT22;8064;51.142;4.780;2023-04-25T12:21:49;15.60;84.10
15930;DHT22;8064;51.142;4.780;2023-04-25T12:24:17;15.60;84.50
15930;DHT22;8064;51.142;4.780;2023-04-25T12:27:03;15.50;84.70
15930;DHT22;8064;51.142;4.780;2023-04-25T12:29:30;15.40;84.40
15930;DHT22;8064;51.142;4.780;2023-04-25T12:31:57;15.40;84.40
15930;DHT22;8064;51.142;4.780;2023-04-25T12:34:24;15.50;84.00
15930;DHT22;8064;51.142;4.780;2023-04-25T12:36:51;15.50;84.10
15930;DHT22;8064;51.142;4.780;2023-04-25T12:39:21;15.60;83.70
15930;DHT22;8064;51.142;4.780;2023-04-25T12:41:50;15.60;82.20
15930;DHT22;8064;51.142;4.780;2023-04-25T12:44:16;15.40;81.20
15930;DHT22;8064;51.142;4.780;2023-04-25T12:46:42;15.30;80.30
15930;DHT22;8064;51.142;4.780;2023-04-25T12:49:08;15.10;79.70
15930;DHT22;8064;51.142;4.780;2023-04-25T12:51:36;14.90;79.80
15930;DHT22;8064;51.142;4.780;2023-04-25T12:54:03;14.90;80.50
15930;DHT22;8064;51.142;4.780;2023-04-25T12:56:30;14.90;80.40
15930;DHT22;8064;51.142;4.780;2023-04-25T12:58:57;14.90;79.50
15930;DHT22;8064;51.142;4.780;2023-04-25T13:01:23;14.90;80.70
15930;DHT22;8064;51.142;4.780;2023-04-25T13:03:49;15.00;80.60
15930;DHT22;8064;51.142;4.780;2023-04-25T13:06:16;15.20;80.60
15930;DHT22;8064;51.142;4.780;2023-04-25T13:08:42;15.30;79.40
15930;DHT22;8064;51.142;4.780;2023-04-25T13:11:08;15.30;79.20
15930;DHT22;8064;51.142;4.780;2023-04-25T13:13:35;15.40;79.20
15930;DHT22;8064;51.142;4.780;2023-04-25T13:16:01;15.40;78.90
15930;DHT22;8064;51.142;4.780;2023-04-25T13:18:29;15.50;78.90
15930;DHT22;8064;51.142;4.780;2023-04-25T13:20:56;15.50;79.60
15930;DHT22;8064;51.142;4.780;2023-04-25T13:23:22;15.60;79.70
15930;DHT22;8064;51.142;4.780;2023-04-25T13:25:48;15.50;78.90
15930;DHT22;8064;51.142;4.780;2023-04-25T13:28:14;15.50;78.50
15930;DHT22;8064;51.142;4.780;2023-04-25T13:30:41;15.60;79.20
15930;DHT22;8064;51.142;4.780;2023-04-25T13:33:07;15.60;79.00
15930;DHT22;8064;51.142;4.780;2023-04-25T13:35:34;15.50;78.50
15930;DHT22;8064;51.142;4.780;2023-04-25T13:38:00;15.40;78.20
15930;DHT22;8064;51.142;4.780;2023-04-25T13:40:26;15.30;78.60
15930;DHT22;8064;51.142;4.780;2023-04-25T13:42:52;15.20;78.90
15930;DHT22;8064;51.142;4.780;2023-04-25T13:45:19;15.00;79.20
15930;DHT22;8064;51.142;4.780;2023-04-25T13:47:45;14.90;79.70
15930;DHT22;8064;51.142;4.780;2023-04-25T13:50:11;14.80;80.20
15930;DHT22;8064;51.142;4.780;2023-04-25T13:52:37;14.60;80.40
15930;DHT22;8064;51.142;4.780;2023-04-25T13:55:03;14.60;81.00
15930;DHT22;8064;51.142;4.780;2023-04-25T13:57:32;14.50;81.30
15930;DHT22;8064;51.142;4.780;2023-04-25T13:59:58;14.50;81.40
15930;DHT22;8064;51.142;4.780;2023-04-25T14:02:25;14.50;81.70
15930;DHT22;8064;51.142;4.780;2023-04-25T14:04:51;14.50;81.90
15930;DHT22;8064;51.142;4.780;2023-04-25T14:07:18;14.50;82.00
15930;DHT22;8064;51.142;4.780;2023-04-25T14:09:46;14.60;82.20
15930;DHT22;8064;51.142;4.780;2023-04-25T14:12:12;14.80;82.30
15930;DHT22;8064;51.142;4.780;2023-04-25T14:14:37;14.90;82.10
15930;DHT22;8064;51.142;4.780;2023-04-25T14:17:04;14.90;81.70
15930;DHT22;8064;51.142;4.780;2023-04-25T14:19:29;14.80;81.60
15930;DHT22;8064;51.142;4.780;2023-04-25T14:21:55;14.80;82.20
15930;DHT22;8064;51.142;4.780;2023-04-25T14:24:21;14.80;82.50
15930;DHT22;8064;51.142;4.780;2023-04-25T14:26:47;14.80;82.70
15930;DHT22;8064;51.142;4.780;2023-04-25T14:29:13;14.90;82.90
15930;DHT22;8064;51.142;4.780;2023-04-25T14:31:40;14.90;83.00
15930;DHT22;8064;51.142;4.780;2023-04-25T14:34:06;15.00;82.80
15930;DHT22;8064;51.142;4.780;2023-04-25T14:36:32;15.10;82.10
15930;DHT22;8064;51.142;4.780;2023-04-25T14:38:59;15.10;81.70
15930;DHT22;8064;51.142;4.780;2023-04-25T14:41:25;15.20;81.90
15930;DHT22;8064;51.142;4.780;2023-04-25T14:43:52;15.30;81.90
15930;DHT22;8064;51.142;4.780;2023-04-25T14:46:19;15.20;81.70
15930;DHT22;8064;51.142;4.780;2023-04-25T14:48:46;15.20;81.40
15930;DHT22;8064;51.142;4.780;2023-04-25T14:51:12;15.10;81.10
15930;DHT22;8064;51.142;4.780;2023-04-25T14:53:39;15.10;81.20
15930;DHT22;8064;51.142;4.780;2023-04-25T14:56:05;15.10;81.40
15930;DHT22;8064;51.142;4.780;2023-04-25T14:58:31;15.10;81.50
15930;DHT22;8064;51.142;4.780;2023-04-25T15:00:57;15.10;80.90
15930;DHT22;8064;51.142;4.780;2023-04-25T15:03:22;15.20;81.00
15930;DHT22;8064;51.142;4.780;2023-04-25T15:05:48;15.10;81.20
15930;DHT22;8064;51.142;4.780;2023-04-25T15:08:14;15.20;81.50
15930;DHT22;8064;51.142;4.780;2023-04-25T15:10:40;15.20;81.30
15930;DHT22;8064;51.142;4.780;2023-04-25T15:13:06;15.30;81.90
15930;DHT22;8064;51.142;4.780;2023-04-25T15:15:31;15.20;80.90
15930;DHT22;8064;51.142;4.780;2023-04-25T15:17:57;15.10;80.50
15930;DHT22;8064;51.142;4.780;2023-04-25T15:20:23;15.00;80.70
15930;DHT22;8064;51.142;4.780;2023-04-25T15:22:49;15.00;81.20
15930;DHT22;8064;51.142;4.780;2023-04-25T15:25:15;15.00;81.10
15930;DHT22;8064;51.142;4.780;2023-04-25T15:27:43;14.90;80.80
15930;DHT22;8064;51.142;4.780;2023-04-25T15:30:12;14.80;81.30
15930;DHT22;8064;51.142;4.780;2023-04-25T15:32:41;14.70;80.30
15930;DHT22;8064;51.142;4.780;2023-04-25T15:35:07;14.70;80.30
15930;DHT22;8064;51.142;4.780;2023-04-25T15:37:34;14.70;80.40
15930;DHT22;8064;51.142;4.780;2023-04-25T15:40:04;14.60;80.30
15930;DHT22;8064;51.142;4.780;2023-04-25T15:42:36;14.50;80.00
15930;DHT22;8064;51.142;4.780;2023-04-25T15:45:05;14.40;80.30
15930;DHT22;8064;51.142;4.780;2023-04-25T15:47:32;14.30;79.80
15930;DHT22;8064;51.142;4.780;2023-04-25T15:49:58;14.20;79.60
15930;DHT22;8064;51.142;4.780;2023-04-25T15:52:24;14.20;79.60
15930;DHT22;8064;51.142;4.780;2023-04-25T15:54:50;14.20;79.70
15930;DHT22;8064;51.142;4.780;2023-04-25T15:57:16;14.10;79.60